Time;durP1;ratioP1;P1;durP2;ratioP2;P2;SDS_P1;SDS_P2;PMS_P1;PMS_P2;Temp;Humidity;BMP_temperature;BMP_pressure;BME280_temperature;BME280_humidity;BME280_pressure;Samples;Min_cycle;Max_cycle;Signal;HPM_P1;HPM_P2
2022/09/07 00:00:06;;;;;;;3.47;2.30;;;;;;;23.97;51.52;101207.44;5084975;28;20052;-59
2022/09/07 00:02:35;;;;;;;2.95;1.70;;;;;;;23.95;52.28;101204.19;5084529;28;20095;-59
2022/09/07 00:05:04;;;;;;;3.67;2.25;;;;;;;23.91;51.84;101194.13;5079919;28;20367;-59
2022/09/07 00:07:32;;;;;;;6.80;2.25;;;;;;;23.90;52.78;101200.72;5080649;28;20071;-58
2022/09/07 00:10:00;;;;;;;4.30;2.30;;;;;;;23.87;52.35;101202.13;5082624;28;20112;-58
2022/09/07 00:12:27;;;;;;;5.05;2.40;;;;;;;23.85;52.70;101184.34;5080502;28;20453;-59
2022/09/07 00:14:55;;;;;;;4.13;2.15;;;;;;;23.84;52.07;101182.72;5084326;28;20095;-59
2022/09/07 00:17:23;;;;;;;2.65;1.88;;;;;;;23.83;52.40;101192.06;5081404;28;20045;-59
2022/09/07 00:19:54;;;;;;;4.00;2.00;;;;;;;23.78;52.33;101195.72;5082955;28;20052;-59
2022/09/07 00:22:21;;;;;;;3.63;2.13;;;;;;;23.74;51.84;101200.19;5083678;28;20079;-59
2022/09/07 00:24:49;;;;;;;4.13;1.88;;;;;;;23.71;51.98;101198.03;5075313;28;20068;-59
2022/09/07 00:27:17;;;;;;;5.35;2.08;;;;;;;23.68;52.39;101188.47;5085667;28;20090;-59
2022/09/07 00:29:44;;;;;;;3.85;1.83;;;;;;;23.66;51.99;101196.19;5083788;28;20076;-60
2022/09/07 00:32:12;;;;;;;4.97;2.10;;;;;;;23.62;52.14;101195.16;5091010;28;20048;-60
2022/09/07 00:34:40;;;;;;;4.55;2.05;;;;;;;23.59;51.91;101201.25;5080388;28;20076;-58
2022/09/07 00:37:09;;;;;;;6.32;1.90;;;;;;;23.58;51.93;101205.13;5078491;28;20426;-58
2022/09/07 00:39:37;;;;;;;3.97;1.58;;;;;;;23.58;52.31;101207.03;5082616;28;20397;-59
2022/09/07 00:42:05;;;;;;;3.40;1.60;;;;;;;23.56;51.82;101193.63;5075296;28;20045;-59
2022/09/07 00:45:09;;;;;;;2.70;1.77;;;;;;;23.57;51.88;101172.50;5082165;28;20045;-59
2022/09/07 00:47:44;;;;;;;4.15;1.98;;;;;;;23.55;51.89;101175.53;5079885;28;20056;-59
2022/09/07 00:50:16;;;;;;;5.28;1.50;;;;;;;23.54;51.84;101157.44;5072983;28;20084;-59
2022/09/07 00:52:48;;;;;;;3.28;1.55;;;;;;;23.52;51.72;101150.59;5083856;28;20087;-59
2022/09/07 00:55:17;;;;;;;9.48;2.03;;;;;;;23.51;51.77;101154.44;5071863;28;20053;-60
2022/09/07 00:57:50;;;;;;;4.55;1.58;;;;;;;23.46;51.80;101141.63;5079024;28;20075;-59
2022/09/07 01:00:18;;;;;;;3.95;1.50;;;;;;;23.45;51.41;101137.25;5070190;28;20104;-60
2022/09/07 01:02:48;;;;;;;3.13;1.50;;;;;;;23.38;51.29;101125.88;5074738;28;20060;-59
2022/09/07 01:05:24;;;;;;;3.97;1.55;;;;;;;23.41;51.49;101141.72;5080370;28;20060;-59
2022/09/07 01:07:55;;;;;;;4.50;1.80;;;;;;;23.38;51.23;101148.63;5069444;28;20072;-59
2022/09/07 01:10:25;;;;;;;2.13;1.40;;;;;;;23.35;51.47;101148.41;5080835;28;20326;-59
2022/09/07 01:12:53;;;;;;;2.72;1.30;;;;;;;23.33;51.62;101162.44;5080581;28;20067;-59
2022/09/07 01:15:25;;;;;;;3.30;1.70;;;;;;;23.32;51.57;101165.47;5083602;28;20072;-60
2022/09/07 01:18:03;;;;;;;3.38;1.80;;;;;;;23.27;51.33;101162.81;5081951;28;20512;-59
2022/09/07 01:20:57;;;;;;;4.60;2.00;;;;;;;23.23;51.44;101154.38;5081884;28;20071;-59
2022/09/07 01:23:57;;;;;;;2.60;1.48;;;;;;;23.23;51.70;101165.34;5080758;28;20083;-59
2022/09/07 01:26:56;;;;;;;3.28;1.45;;;;;;;23.22;51.22;101157.41;5081609;28;20048;-59
2022/09/07 01:29:32;;;;;;;2.92;1.40;;;;;;;23.20;51.39;101152.22;5077244;28;20072;-59
2022/09/07 01:32:09;;;;;;;5.10;1.90;;;;;;;23.18;51.16;101151.69;5082312;28;20079;-59
2022/09/07 01:34:38;;;;;;;3.25;1.92;;;;;;;23.15;51.21;101154.22;5072071;28;20079;-59
2022/09/07 01:37:15;;;;;;;3.22;1.65;;;;;;;23.13;51.56;101157.28;5083669;28;20048;-58
2022/09/07 01:39:50;;;;;;;2.50;1.60;;;;;;;23.12;51.30;101157.56;5076274;28;20184;-59
2022/09/07 01:42:22;;;;;;;5.07;2.05;;;;;;;23.09;51.28;101160.91;5078824;28;20040;-59
2022/09/07 01:44:55;;;;;;;3.60;2.25;;;;;;;23.05;51.68;101166.97;5077417;28;20044;-58
2022/09/07 01:47:31;;;;;;;5.55;1.90;;;;;;;23.05;51.63;101164.25;5073367;28;20049;-59
2022/09/07 01:50:04;;;;;;;3.47;1.58;;;;;;;23.03;51.32;101162.91;5075545;28;20475;-59
2022/09/07 01:52:37;;;;;;;3.90;2.15;;;;;;;23.03;51.24;101163.72;5082855;28;20383;-59
2022/09/07 01:55:12;;;;;;;6.32;1.80;;;;;;;23.01;51.29;101159.66;5075171;28;20053;-60
2022/09/07 01:57:45;;;;;;;2.60;2.15;;;;;;;22.99;51.56;101164.63;5073714;28;20051;-59
2022/09/07 02:00:18;;;;;;;3.42;1.73;;;;;;;22.99;51.25;101165.44;5073976;28;20055;-59
2022/09/07 02:02:48;;;;;;;2.67;1.60;;;;;;;22.98;51.27;101160.25;5070611;28;20179;-60
2022/09/07 02:05:20;;;;;;;3.75;1.77;;;;;;;22.98;51.51;101168.47;5077894;28;20049;-60
2022/09/07 02:07:52;;;;;;;2.40;1.50;;;;;;;22.97;51.41;101170.41;5079556;28;20087;-60
2022/09/07 02:10:26;;;;;;;3.00;1.60;;;;;;;22.92;51.49;101162.25;5071160;28;20045;-60
2022/09/07 02:13:01;;;;;;;2.95;1.50;;;;;;;22.92;51.14;101159.50;5075611;28;20068;-60
2022/09/07 02:15:41;;;;;;;2.77;1.77;;;;;;;22.92;51.40;101155.94;5080588;28;20048;-60
2022/09/07 02:18:12;;;;;;;2.15;1.30;;;;;;;22.92;51.26;101153.22;5069789;28;20381;-59
2022/09/07 02:20:44;;;;;;;5.20;1.92;;;;;;;22.90;51.31;101147.22;5079096;28;20075;-59
2022/09/07 02:23:17;;;;;;;3.50;1.70;;;;;;;22.87;51.49;101150.53;5078921;28;20083;-59
2022/09/07 02:25:51;;;;;;;3.03;1.80;;;;;;;22.85;51.36;101153.59;5076258;28;20119;-59
2022/09/07 02:28:23;;;;;;;2.17;1.30;;;;;;;22.85;51.46;101158.25;5074178;28;20072;-59
2022/09/07 02:30:52;;;;;;;2.60;1.33;;;;;;;22.83;51.62;101150.31;5075041;28;20123;-59
2022/09/07 02:33:20;;;;;;;2.00;1.60;;;;;;;22.82;51.54;101145.94;5075243;28;20045;-60
2022/09/07 02:35:48;;;;;;;3.90;1.70;;;;;;;22.81;51.70;101157.22;5074877;28;20595;-60
2022/09/07 02:38:17;;;;;;;1.75;1.10;;;;;;;22.80;51.26;101163.81;5076592;28;20418;-60
2022/09/07 02:40:50;;;;;;;3.67;1.90;;;;;;;22.78;51.72;101155.03;5081408;28;20076;-59
2022/09/07 02:43:20;;;;;;;3.83;1.88;;;;;;;22.76;51.42;101149.03;5077639;28;20055;-59
2022/09/07 02:46:03;;;;;;;2.70;1.75;;;;;;;22.74;51.46;101152.88;5069171;28;20048;-59
2022/09/07 02:48:42;;;;;;;5.93;2.45;;;;;;;22.72;51.55;101155.09;5076323;28;20331;-60
2022/09/07 02:51:17;;;;;;;3.78;1.83;;;;;;;22.71;51.49;101158.94;5080973;28;20088;-59
2022/09/07 02:53:57;;;;;;;3.38;1.55;;;;;;;22.69;51.54;101174.88;5085924;28;20076;-59
2022/09/07 02:56:39;;;;;;;2.47;1.60;;;;;;;22.68;51.50;101170.50;5069173;28;20076;-60
2022/09/07 02:59:17;;;;;;;3.10;1.60;;;;;;;22.64;51.74;101163.97;5081828;28;20076;-60
2022/09/07 03:01:56;;;;;;;5.18;1.80;;;;;;;22.63;51.57;101164.28;5078171;28;20052;-60
2022/09/07 03:04:36;;;;;;;2.67;1.77;;;;;;;22.59;52.07;101155.84;5065742;28;20056;-60
2022/09/07 03:07:10;;;;;;;2.45;1.67;;;;;;;22.59;52.09;101149.53;5079768;28;20064;-60
2022/09/07 03:09:41;;;;;;;2.00;1.52;;;;;;;22.57;51.81;101152.56;5082748;28;20052;-60
2022/09/07 03:12:10;;;;;;;3.58;2.10;;;;;;;22.56;52.19;101147.38;5077987;28;20077;-60
2022/09/07 03:14:40;;;;;;;2.30;1.55;;;;;;;22.54;52.16;101144.13;5078861;28;20055;-57
2022/09/07 03:17:10;;;;;;;3.25;1.83;;;;;;;22.52;52.47;101138.97;5081230;28;20060;-59
2022/09/07 03:19:38;;;;;;;3.53;1.80;;;;;;;22.51;52.11;101125.56;5064411;28;20094;-58
2022/09/07 03:22:06;;;;;;;2.88;1.80;;;;;;;22.49;52.50;101131.34;5081367;28;20072;-58
2022/09/07 03:24:33;;;;;;;2.53;1.98;;;;;;;22.49;52.58;101136.00;5082106;28;20048;-59
2022/09/07 03:27:01;;;;;;;3.97;2.17;;;;;;;22.47;52.51;101144.53;5077921;28;20053;-58
2022/09/07 03:29:29;;;;;;;3.38;1.90;;;;;;;22.45;52.44;101141.25;5073019;28;20513;-58
2022/09/07 03:31:57;;;;;;;4.88;2.20;;;;;;;22.44;52.62;101142.38;5080360;28;20055;-58
2022/09/07 03:34:26;;;;;;;3.15;1.60;;;;;;;22.43;52.61;101140.75;5075271;28;20115;-58
2022/09/07 03:36:54;;;;;;;2.72;1.70;;;;;;;22.41;52.41;101134.75;5080646;28;20367;-59
2022/09/07 03:39:22;;;;;;;4.22;2.00;;;;;;;22.40;52.84;101130.38;5079288;28;20055;-59
2022/09/07 03:41:50;;;;;;;2.35;1.83;;;;;;;22.39;52.75;101136.97;5083138;28;20114;-59
2022/09/07 03:44:18;;;;;;;2.80;1.85;;;;;;;22.37;52.76;101136.44;5076221;28;20083;-59
2022/09/07 03:46:46;;;;;;;3.80;1.95;;;;;;;22.36;52.89;101132.06;5081473;28;20056;-59
2022/09/07 03:49:15;;;;;;;2.40;1.65;;;;;;;22.33;52.78;101141.69;5075556;28;20055;-59
2022/09/07 03:51:44;;;;;;;3.00;1.90;;;;;;;22.34;53.09;101146.06;5081730;28;20583;-59
2022/09/07 03:54:11;;;;;;;6.43;2.30;;;;;;;22.33;53.09;101144.41;5077477;28;20057;-59
2022/09/07 03:56:39;;;;;;;4.25;2.30;;;;;;;22.32;52.71;101141.97;5072823;28;20481;-60
2022/09/07 03:59:07;;;;;;;3.42;2.13;;;;;;;22.29;52.80;101140.63;5084182;28;20084;-59
2022/09/07 04:01:35;;;;;;;3.00;1.90;;;;;;;22.28;52.77;101125.31;5071868;28;20044;-59
2022/09/07 04:04:03;;;;;;;3.60;1.85;;;;;;;22.26;53.04;101118.50;5083740;28;20048;-59
2022/09/07 04:06:31;;;;;;;3.35;1.98;;;;;;;22.24;53.13;101101.56;5079500;28;20065;-59
2022/09/07 04:09:03;;;;;;;3.60;1.73;;;;;;;22.25;53.13;101108.66;5067520;28;20088;-59
2022/09/07 04:11:31;;;;;;;4.18;1.95;;;;;;;22.24;53.19;101085.94;5083641;28;20037;-59
2022/09/07 04:13:59;;;;;;;3.90;1.90;;;;;;;22.23;53.11;101095.25;5078416;28;20055;-60
2022/09/07 04:16:27;;;;;;;3.85;2.28;;;;;;;22.22;53.09;101093.63;5081629;28;20048;-60
2022/09/07 04:18:57;;;;;;;5.32;2.15;;;;;;;22.20;53.16;101095.84;5086019;28;20100;-59
2022/09/07 04:21:27;;;;;;;5.05;2.10;;;;;;;22.20;52.98;101097.78;5068179;28;20045;-59
2022/09/07 04:23:55;;;;;;;7.30;2.00;;;;;;;22.19;52.93;101090.66;5079709;28;20068;-59
2022/09/07 04:26:25;;;;;;;3.83;2.05;;;;;;;22.18;53.13;101103.53;5079738;28;20072;-59
2022/09/07 04:28:54;;;;;;;5.50;2.10;;;;;;;22.18;53.13;101100.81;5081278;28;20072;-59
2022/09/07 04:31:23;;;;;;;4.45;2.20;;;;;;;22.17;53.30;101101.09;5095938;28;20083;-59
2022/09/07 04:33:51;;;;;;;2.90;2.15;;;;;;;22.16;53.00;101100.28;5082786;28;20565;-59
2022/09/07 04:36:20;;;;;;;4.35;2.22;;;;;;;22.14;53.00;101102.50;5076574;28;20055;-59
2022/09/07 04:38:54;;;;;;;3.38;1.98;;;;;;;22.13;52.98;101102.78;5078033;28;20083;-59
2022/09/07 04:41:24;;;;;;;4.72;2.50;;;;;;;22.13;54.00;101111.81;5080397;28;20080;-58
2022/09/07 04:43:54;;;;;;;3.00;2.10;;;;;;;22.13;53.39;101114.56;5079587;28;20147;-59
2022/09/07 04:46:23;;;;;;;4.78;2.20;;;;;;;22.12;53.33;101117.59;5074489;28;20091;-59
2022/09/07 04:48:53;;;;;;;3.25;2.28;;;;;;;22.10;53.68;101122.53;5075690;28;20049;-60
2022/09/07 04:51:23;;;;;;;3.28;2.05;;;;;;;22.10;53.88;101115.13;5074729;28;20063;-59
2022/09/07 04:53:53;;;;;;;3.30;2.45;;;;;;;22.10;53.61;101114.31;5081676;28;20409;-59
2022/09/07 04:56:22;;;;;;;3.72;2.42;;;;;;;22.07;53.63;101108.31;5082523;28;21523;-59
2022/09/07 04:58:51;;;;;;;2.95;1.98;;;;;;;22.08;53.66;101106.41;5082129;28;20079;-59
2022/09/07 05:01:21;;;;;;;3.80;2.10;;;;;;;22.07;53.67;101104.78;5080436;28;20079;-59
2022/09/07 05:03:50;;;;;;;3.42;2.30;;;;;;;22.05;53.61;101104.25;5076080;28;20048;-58
2022/09/07 05:06:19;;;;;;;3.53;2.40;;;;;;;22.04;53.80;101095.22;5067169;28;20049;-59
2022/09/07 05:08:48;;;;;;;4.88;2.60;;;;;;;22.01;54.03;101093.03;5081365;28;20041;-60
2022/09/07 05:11:17;;;;;;;5.40;2.55;;;;;;;22.00;53.87;101099.63;5072544;28;20127;-59
2022/09/07 05:13:45;;;;;;;2.17;1.92;;;;;;;22.00;53.92;101096.06;5079260;28;20116;-59
2022/09/07 05:16:17;;;;;;;4.15;2.20;;;;;;;21.99;53.81;101099.91;5066215;28;20324;-60
2022/09/07 05:18:48;;;;;;;3.92;2.30;;;;;;;21.96;53.67;101108.72;5081570;28;20051;-60
2022/09/07 05:21:19;;;;;;;3.58;2.17;;;;;;;21.96;54.06;101106.78;5078176;28;20064;-59
2022/09/07 05:23:49;;;;;;;2.65;2.10;;;;;;;21.95;53.91;101115.28;5079511;28;20119;-59
2022/09/07 05:26:17;;;;;;;4.03;2.40;;;;;;;21.93;54.08;101112.84;5076235;28;20059;-60
2022/09/07 05:28:45;;;;;;;5.60;2.50;;;;;;;21.94;53.97;101116.41;5081858;28;20052;-62
2022/09/07 05:31:16;;;;;;;5.05;2.88;;;;;;;21.94;54.01;101116.41;5084351;28;20041;-60
2022/09/07 05:33:47;;;;;;;4.28;2.42;;;;;;;21.93;54.02;101121.06;5090129;28;20062;-60
2022/09/07 05:36:36;;;;;;;5.97;2.28;;;;;;;21.92;53.93;101116.69;5085362;28;20521;-59
2022/09/07 05:39:05;;;;;;;3.47;2.25;;;;;;;21.90;53.97;101118.91;5083938;28;20045;-59
2022/09/07 05:41:33;;;;;;;3.97;2.20;;;;;;;21.90;54.05;101115.34;5085190;28;20044;-59
2022/09/07 05:44:01;;;;;;;4.88;2.15;;;;;;;21.89;54.01;101120.00;5088453;28;20055;-58
2022/09/07 05:46:51;;;;;;;3.40;2.17;;;;;;;21.87;54.08;101121.41;5072197;28;20042;-60
2022/09/07 05:49:19;;;;;;;3.65;2.42;;;;;;;21.87;54.08;101129.63;5076631;28;20049;-59
2022/09/07 05:51:47;;;;;;;3.15;1.90;;;;;;;21.87;54.10;101130.44;5087081;28;20048;-60
2022/09/07 05:54:14;;;;;;;3.95;2.50;;;;;;;21.85;54.17;101127.16;5080498;28;20079;-58
2022/09/07 05:56:43;;;;;;;3.22;2.30;;;;;;;21.86;53.65;101133.44;5080452;28;20071;-59
2022/09/07 05:59:11;;;;;;;3.83;2.28;;;;;;;21.85;53.96;101134.56;5082084;28;20083;-59
2022/09/07 06:01:39;;;;;;;5.55;2.75;;;;;;;21.84;53.75;101130.19;5084030;28;20057;-59
2022/09/07 06:04:08;;;;;;;3.38;2.28;;;;;;;21.84;53.79;101127.44;5081694;28;20049;-60
2022/09/07 06:06:38;;;;;;;5.95;2.67;;;;;;;21.83;54.01;101143.06;5082004;28;20071;-60
2022/09/07 06:09:06;;;;;;;3.95;2.40;;;;;;;21.82;54.14;101133.22;5081544;28;20051;-59
2022/09/07 06:11:36;;;;;;;6.97;3.80;;;;;;;21.80;54.97;101137.34;5079029;28;20079;-63
2022/09/07 06:14:04;;;;;;;5.85;3.45;;;;;;;21.80;55.50;101135.44;5075524;28;20079;-62
2022/09/07 06:16:33;;;;;;;7.90;3.85;;;;;;;21.81;55.27;101141.72;5082830;28;20386;-63
2022/09/07 06:19:05;;;;;;;9.23;3.72;;;;;;;21.79;55.07;101139.28;5084199;28;20048;-63
2022/09/07 06:21:37;;;;;;;8.25;3.35;;;;;;;21.80;54.94;101135.44;5082697;28;20048;-63
2022/09/07 06:24:05;;;;;;;6.60;3.80;;;;;;;21.81;54.96;101139.78;5072506;28;20056;-62
2022/09/07 06:26:33;;;;;;;5.80;3.80;;;;;;;21.81;55.02;101144.44;5082001;28;20083;-63
2022/09/07 06:29:02;;;;;;;8.35;3.08;;;;;;;21.80;54.93;101146.38;5078678;28;20076;-63
2022/09/07 06:31:30;;;;;;;4.97;3.03;;;;;;;21.81;54.82;101149.94;5074563;28;20268;-63
2022/09/07 06:33:58;;;;;;;7.28;3.40;;;;;;;21.81;54.85;101149.94;5063424;28;20064;-63
2022/09/07 06:36:27;;;;;;;6.88;3.90;;;;;;;21.79;55.16;101150.22;5083139;28;20525;-63
2022/09/07 06:39:00;;;;;;;11.20;4.22;;;;;;;21.80;54.85;101156.50;5077629;28;20056;-63
2022/09/07 06:41:30;;;;;;;8.88;4.40;;;;;;;21.83;54.78;101155.94;5082524;28;20049;-63
2022/09/07 06:44:17;;;;;;;6.70;4.10;;;;;;;21.81;54.90;101160.88;5078867;28;20061;-63
2022/09/07 06:46:45;;;;;;;5.80;3.47;;;;;;;21.79;54.81;101152.94;5083931;28;20049;-63
2022/09/07 06:49:28;;;;;;;8.10;4.22;;;;;;;21.82;54.93;101155.09;5075271;28;20079;-63
2022/09/07 06:51:56;;;;;;;6.25;3.97;;;;;;;21.82;55.05;101162.50;5077381;28;20612;-62
2022/09/07 06:54:25;;;;;;;8.85;4.70;;;;;;;21.82;54.78;101166.06;5071193;28;20079;-62
2022/09/07 06:57:10;;;;;;;6.78;4.15;;;;;;;21.82;55.09;101160.59;5083780;28;20108;-60
2022/09/07 06:59:38;;;;;;;5.55;4.00;;;;;;;21.84;54.67;101165.75;5081365;28;20072;-65
2022/09/07 07:02:06;;;;;;;6.47;4.50;;;;;;;21.84;55.17;101160.28;5071727;28;20059;-63
2022/09/07 07:04:34;;;;;;;7.57;4.35;;;;;;;21.84;54.84;101163.84;5089785;28;20158;-61
2022/09/07 07:07:09;;;;;;;5.50;3.80;;;;;;;21.84;54.67;101161.09;5076056;28;20135;-62
2022/09/07 07:09:39;;;;;;;10.13;3.95;;;;;;;21.85;54.78;101161.94;5075801;28;20079;-61
2022/09/07 07:12:07;;;;;;;6.95;4.25;;;;;;;21.81;54.63;101164.41;5072397;28;20056;-61
2022/09/07 07:14:35;;;;;;;8.73;3.65;;;;;;;21.83;54.67;101167.69;5075011;28;20068;-61
2022/09/07 07:17:09;;;;;;;7.65;4.20;;;;;;;21.84;54.64;101163.84;5076269;28;20075;-61
2022/09/07 07:19:36;;;;;;;7.20;4.80;;;;;;;21.84;54.64;101169.31;5084878;28;20072;-62
2022/09/07 07:22:04;;;;;;;5.10;3.80;;;;;;;21.84;54.57;101165.75;5081894;28;20540;-61
2022/09/07 07:24:53;;;;;;;8.07;5.05;;;;;;;21.86;54.98;101169.84;5086214;28;20047;-62
2022/09/07 07:27:21;;;;;;;6.72;4.97;;;;;;;21.85;55.14;101170.94;5086171;28;20080;-61
2022/09/07 07:29:49;;;;;;;7.22;4.75;;;;;;;21.86;55.33;101167.09;5075615;28;20114;-61
2022/09/07 07:32:16;;;;;;;5.88;4.32;;;;;;;21.85;55.25;101179.16;5080213;28;20045;-61
2022/09/07 07:35:03;;;;;;;6.95;4.18;;;;;;;21.86;55.46;101178.06;5085963;28;20047;-61
2022/09/07 07:37:31;;;;;;;6.55;4.25;;;;;;;21.86;55.23;101174.50;5084875;28;20059;-61
2022/09/07 07:40:00;;;;;;;7.93;4.45;;;;;;;21.86;55.12;101178.06;5072958;28;20048;-61
2022/09/07 07:42:48;;;;;;;7.85;4.07;;;;;;;21.86;55.22;101175.31;5083799;28;20102;-61
2022/09/07 07:45:16;;;;;;;8.90;4.40;;;;;;;21.86;55.12;101183.53;5086314;28;20045;-62
2022/09/07 07:48:04;;;;;;;5.40;3.90;;;;;;;21.87;55.29;101176.94;5079624;28;20056;-62
2022/09/07 07:50:32;;;;;;;8.38;4.57;;;;;;;21.86;55.00;101180.78;5088753;28;20052;-62
2022/09/07 07:53:00;;;;;;;6.95;4.35;;;;;;;21.88;55.23;101183.25;5084720;28;20056;-62
2022/09/07 07:55:50;;;;;;;6.30;3.67;;;;;;;21.87;55.08;101184.34;5076942;28;20292;-62
2022/09/07 07:58:17;;;;;;;6.60;4.05;;;;;;;21.87;55.28;101196.09;5086736;28;20131;-62
2022/09/07 08:00:45;;;;;;;5.60;4.10;;;;;;;21.88;55.07;101191.44;5086250;28;20051;-62
2022/09/07 08:03:24;;;;;;;6.63;4.03;;;;;;;21.87;55.47;101195.28;5080117;28;20126;-62
2022/09/07 08:05:52;;;;;;;5.63;3.85;;;;;;;21.87;55.36;101193.38;5082270;28;20112;-62
2022/09/07 08:08:21;;;;;;;6.13;4.43;;;;;;;21.87;55.19;101196.09;5084054;28;20140;-62
2022/09/07 08:10:50;;;;;;;5.10;3.88;;;;;;;21.86;55.30;101199.94;5070770;28;20052;-61
2022/09/07 08:13:20;;;;;;;6.32;4.13;;;;;;;21.87;55.51;101196.09;5086335;28;20504;-62
2022/09/07 08:15:48;;;;;;;8.10;4.22;;;;;;;21.88;55.74;101199.66;5066750;28;20043;-63
2022/09/07 08:18:17;;;;;;;6.60;4.30;;;;;;;21.88;55.48;101196.91;5079600;28;20063;-62
2022/09/07 08:20:45;;;;;;;7.78;4.38;;;;;;;21.88;55.80;101196.91;5084863;28;20048;-62
2022/09/07 08:23:16;;;;;;;7.05;4.90;;;;;;;21.88;55.99;101205.13;5088991;28;20078;-62
2022/09/07 08:25:52;;;;;;;5.72;4.10;;;;;;;21.89;55.93;101204.03;5084979;28;20049;-61
2022/09/07 08:28:20;;;;;;;;;;;;;;;21.89;56.03;101204.03;5083586;28;20347;-60
2022/09/07 08:30:48;;;;;;;4.90;4.03;;;;;;;21.89;56.08;101204.03;5074940;28;19920;-63
2022/09/07 08:33:16;;;;;;;6.22;4.63;;;;;;;21.90;55.96;101200.19;5086102;28;20052;-62
2022/09/07 08:35:54;;;;;;;7.75;4.65;;;;;;;21.89;56.13;101207.56;5091437;28;20377;-66
2022/09/07 08:38:22;;;;;;;7.35;4.60;;;;;;;22.00;56.07;101209.09;5077216;28;20457;-65
2022/09/07 08:40:52;;;;;;;7.18;4.60;;;;;;;21.94;56.37;101218.47;5081747;28;20322;-66
2022/09/07 08:43:40;;;;;;;5.85;4.38;;;;;;;21.92;56.52;101217.13;5073659;28;20465;-63
2022/09/07 08:46:23;;;;;;;7.93;5.05;;;;;;;21.92;56.72;101212.47;5080005;28;20044;-63
2022/09/07 08:48:52;;;;;;;16.23;5.72;;;;;;;21.93;56.47;101224.22;5070091;28;20071;-63
2022/09/07 08:51:25;;;;;;;6.72;4.30;;;;;;;21.91;56.64;101210.84;5081806;28;20052;-63
2022/09/07 08:53:53;;;;;;;7.25;3.55;;;;;;;21.93;56.61;101216.84;5089022;28;20052;-64
2022/09/07 08:56:27;;;;;;;7.22;4.57;;;;;;;21.95;56.72;101217.38;5082774;28;20140;-64
2022/09/07 08:59:04;;;;;;;7.00;3.55;;;;;;;21.96;56.46;101212.72;5096159;28;20086;-63
2022/09/07 09:01:36;;;;;;;6.63;4.50;;;;;;;21.94;56.59;101213.00;5065761;28;20048;-63
2022/09/07 09:04:14;;;;;;;6.30;3.63;;;;;;;21.93;56.62;101214.09;5077032;28;20045;-64
2022/09/07 09:06:55;;;;;;;8.50;4.10;;;;;;;21.94;56.85;101223.13;5068338;28;20392;-64
2022/09/07 09:09:34;;;;;;;7.88;4.30;;;;;;;22.02;57.48;101215.13;5075998;28;20580;-65
2022/09/07 09:12:13;;;;;;;11.25;4.57;;;;;;;22.03;56.83;101218.69;5072549;28;20060;-64
2022/09/07 09:14:58;;;;;;;6.20;3.38;;;;;;;22.00;56.78;101211.84;5079934;28;20059;-65
2022/09/07 09:17:31;;;;;;;5.15;3.25;;;;;;;22.03;56.97;101207.75;5076879;28;20072;-64
2022/09/07 09:20:10;;;;;;;6.93;3.55;;;;;;;22.05;56.72;101211.81;5072140;28;20049;-64
2022/09/07 09:22:38;;;;;;;4.93;3.20;;;;;;;22.05;56.65;101221.97;5072074;28;20071;-64
2022/09/07 09:25:17;;;;;;;7.65;3.72;;;;;;;22.04;56.41;101221.16;5093344;28;20241;-63
2022/09/07 09:27:47;;;;;;;4.80;3.25;;;;;;;22.05;56.60;101216.47;5065188;28;20049;-64
2022/09/07 09:30:18;;;;;;;5.15;2.67;;;;;;;22.07;56.39;101215.09;5093495;28;20051;-63
2022/09/07 09:32:48;;;;;;;7.00;3.05;;;;;;;22.07;56.46;101212.34;5084940;28;20241;-63
2022/09/07 09:35:23;;;;;;;6.22;2.88;;;;;;;22.15;56.24;101210.09;5079009;28;20056;-64
2022/09/07 09:37:50;;;;;;;5.20;3.20;;;;;;;22.11;56.32;101209.84;5084771;28;20127;-65
2022/09/07 09:40:21;;;;;;;7.57;3.15;;;;;;;22.12;56.02;101213.41;5067250;28;20053;-64
2022/09/07 09:43:01;;;;;;;6.22;2.88;;;;;;;22.21;56.53;101217.94;5080219;28;20047;-64
2022/09/07 09:45:31;;;;;;;6.63;3.22;;;;;;;22.23;55.97;101221.22;5082844;28;20115;-64
2022/09/07 09:48:23;;;;;;;3.88;2.80;;;;;;;22.19;56.20;101216.63;5072832;28;20044;-65
2022/09/07 09:50:55;;;;;;;4.95;2.10;;;;;;;22.18;56.28;101218.53;5081197;28;20041;-64
2022/09/07 09:53:52;;;;;;;4.05;2.50;;;;;;;22.18;56.26;101218.53;5083931;28;20066;-64
2022/09/07 09:56:21;;;;;;;6.78;2.78;;;;;;;22.19;56.26;101220.16;5068955;28;20045;-63
2022/09/07 09:58:50;;;;;;;3.35;2.10;;;;;;;22.29;56.78;101217.31;5076553;28;20055;-64
2022/09/07 10:01:38;;;;;;;4.07;2.20;;;;;;;22.28;56.08;101212.13;5075984;28;20040;-64
2022/09/07 10:04:31;;;;;;;3.05;2.13;;;;;;;22.30;56.13;101213.47;5070689;28;20056;-63
2022/09/07 10:07:08;;;;;;;5.75;2.53;;;;;;;22.32;55.85;101196.75;5083809;28;20048;-65
2022/09/07 10:09:37;;;;;;;7.15;2.30;;;;;;;22.32;55.78;101205.78;5076558;28;20136;-64
2022/09/07 10:12:07;;;;;;;4.50;2.17;;;;;;;22.34;55.97;101206.31;5082661;28;20048;-64
2022/09/07 10:14:43;;;;;;;6.80;2.78;;;;;;;22.35;55.65;101196.16;5074558;28;20509;-65
2022/09/07 10:17:13;;;;;;;6.85;2.28;;;;;;;22.32;55.67;101188.53;5076276;28;20053;-64
2022/09/07 10:19:42;;;;;;;7.40;2.30;;;;;;;22.44;56.42;101199.88;5081891;28;20040;-63
2022/09/07 10:22:31;;;;;;;4.03;2.22;;;;;;;22.46;56.17;101202.34;5081258;28;20048;-62
2022/09/07 10:25:00;;;;;;;6.05;1.90;;;;;;;22.48;56.20;101194.63;5082580;28;20052;-62
2022/09/07 10:27:31;;;;;;;4.38;2.15;;;;;;;22.52;55.90;101204.72;5083424;28;20051;-63
2022/09/07 10:30:02;;;;;;;4.55;1.98;;;;;;;22.55;55.81;101203.28;5076697;28;20072;-64
2022/09/07 10:32:49;;;;;;;4.15;1.90;;;;;;;22.56;55.77;101193.97;5083800;28;20056;-63
2022/09/07 10:35:22;;;;;;;6.47;2.35;;;;;;;22.58;55.81;101198.03;5073911;28;20056;-63
2022/09/07 10:37:55;;;;;;;4.28;2.10;;;;;;;22.59;55.47;101187.91;5083640;28;20048;-61
2022/09/07 10:40:31;;;;;;;3.53;1.75;;;;;;;22.58;55.40;101189.00;5091367;28;20048;-64
2022/09/07 10:43:12;;;;;;;5.63;1.92;;;;;;;22.61;55.38;101199.38;5087971;28;20041;-63
2022/09/07 10:46:18;;;;;;;5.20;1.85;;;;;;;22.61;55.08;101178.28;5084881;28;20040;-64
2022/09/07 10:49:15;;;;;;;4.88;2.08;;;;;;;22.68;55.78;101181.47;5082669;28;20041;-63
2022/09/07 10:51:53;;;;;;;4.78;1.70;;;;;;;22.71;55.37;101180.88;5079690;28;20070;-63
2022/09/07 10:54:28;;;;;;;4.03;1.75;;;;;;;22.80;55.28;101177.50;5090210;28;20513;-62
2022/09/07 10:57:15;;;;;;;5.82;1.95;;;;;;;22.84;55.40;101182.09;5076363;28;20037;-62
2022/09/07 10:59:49;;;;;;;7.88;2.15;;;;;;;22.98;55.15;101180.25;5080663;28;20415;-64
2022/09/07 11:02:53;;;;;;;4.22;2.28;;;;;;;22.99;55.19;101176.41;5082022;28;20074;-61
2022/09/07 11:05:56;;;;;;;4.00;1.85;;;;;;;23.04;54.64;101168.09;5083561;28;20048;-62
2022/09/07 11:08:35;;;;;;;5.22;1.85;;;;;;;23.12;54.37;101169.34;5086564;28;20055;-62
2022/09/07 11:11:27;;;;;;;6.20;2.30;;;;;;;23.15;54.69;101170.69;5081310;28;20107;-62
2022/09/07 11:14:19;;;;;;;5.35;1.98;;;;;;;23.18;54.06;101164.59;5078984;28;20071;-62
2022/09/07 11:16:52;;;;;;;3.33;1.52;;;;;;;23.16;53.91;101158.59;5067815;28;20045;-62
2022/09/07 11:19:23;;;;;;;2.38;1.70;;;;;;;;;;5086447;28;20071;-63
2022/09/07 11:22:18;;;;;;;3.05;1.75;;;;;;;23.22;53.65;101171.13;5088388;28;20119;-63
2022/09/07 11:24:50;;;;;;;3.53;1.63;;;;;;;23.21;53.92;101174.97;5082600;28;20067;-63
2022/09/07 11:27:45;;;;;;;3.95;1.98;;;;;;;23.21;53.70;101167.56;5086221;28;20056;-62
2022/09/07 11:30:19;;;;;;;6.90;1.70;;;;;;;23.21;53.91;101155.78;5078809;28;20056;-62
2022/09/07 11:32:53;;;;;;;7.55;2.20;;;;;;;;;;5086477;28;20123;-63
2022/09/07 11:35:33;;;;;;;3.45;1.98;;;;;;;23.31;54.15;101166.59;5073389;28;20055;-63
2022/09/07 11:38:12;;;;;;;3.47;1.48;;;;;;;23.45;53.84;101164.69;5086548;28;20041;-63
2022/09/07 11:40:48;;;;;;;6.45;2.25;;;;;;;23.51;53.40;101160.75;5091589;28;20048;-63
2022/09/07 11:43:22;;;;;;;6.47;1.60;;;;;;;23.50;53.38;101161.88;5073289;28;20113;-63
2022/09/07 11:45:54;;;;;;;4.07;2.03;;;;;;;23.50;52.94;101161.06;5085590;28;20155;-63
2022/09/07 11:48:28;;;;;;;4.47;1.90;;;;;;;23.55;52.90;101164.56;5081250;28;20053;-63
2022/09/07 11:51:01;;;;;;;3.35;1.77;;;;;;;23.56;53.28;101159.88;5083498;28;20072;-69
2022/09/07 11:53:32;;;;;;;4.18;2.00;;;;;;;23.59;53.03;101160.09;5080731;28;20498;-65